createdAt,value
2018-01-29T00:01:40.319Z,18.90
2018-01-29T00:04:07.726Z,17.90
2018-01-29T00:06:35.126Z,17.87
2018-01-29T00:09:02.530Z,17.47
2018-01-29T00:11:29.970Z,18.43
2018-01-29T00:13:57.394Z,18.33
2018-01-29T00:16:24.805Z,20.10
2018-01-29T00:18:52.197Z,20.30
2018-01-29T00:21:19.594Z,22.17
2018-01-29T00:23:46.994Z,21.80
2018-01-29T00:26:14.422Z,21.77
2018-01-29T00:28:41.827Z,22.80
2018-01-29T00:31:09.254Z,22.93
2018-01-29T00:33:36.667Z,24.10
2018-01-29T00:36:04.065Z,23.50
2018-01-29T00:38:31.492Z,26.00
2018-01-29T00:40:58.971Z,22.60
2018-01-29T00:43:26.404Z,25.57
2018-01-29T00:45:53.798Z,28.17
2018-01-29T00:48:21.228Z,27.63
2018-01-29T00:50:48.642Z,27.50
2018-01-29T00:53:16.074Z,26.30
2018-01-29T00:55:43.506Z,27.80
2018-01-29T00:58:10.945Z,28.83
2018-01-29T01:00:38.354Z,30.10
2018-01-29T01:03:05.754Z,29.20
2018-01-29T01:05:33.163Z,29.07
2018-01-29T01:08:00.567Z,25.60
2018-01-29T01:10:27.966Z,29.37
2018-01-29T01:12:55.378Z,29.73
2018-01-29T01:15:22.787Z,31.67
2018-01-29T01:17:50.202Z,27.70
2018-01-29T01:20:17.610Z,29.77
2018-01-29T01:22:45.002Z,28.33
2018-01-29T01:25:12.411Z,28.70
2018-01-29T01:27:39.803Z,30.37
2018-01-29T01:30:07.256Z,27.97
2018-01-29T01:32:34.647Z,25.80
2018-01-29T01:35:02.052Z,27.03
2018-01-29T01:37:29.455Z,25.70
2018-01-29T01:39:56.908Z,27.77
2018-01-29T01:42:24.318Z,29.50
2018-01-29T01:44:51.752Z,27.00
2018-01-29T01:47:19.126Z,26.70
2018-01-29T01:49:46.610Z,25.23
2018-01-29T01:52:14.022Z,22.57
2018-01-29T01:54:42.263Z,23.50
2018-01-29T01:57:09.727Z,20.90
2018-01-29T01:59:37.269Z,22.20
2018-01-29T02:02:04.670Z,21.10
2018-01-29T02:04:32.081Z,16.77
2018-01-29T02:06:59.483Z,21.30
2018-01-29T02:09:26.895Z,21.87
2018-01-29T02:11:54.365Z,22.90
2018-01-29T02:14:21.782Z,22.50
2018-01-29T02:16:49.170Z,22.60
2018-01-29T02:19:16.578Z,23.17
2018-01-29T02:21:43.994Z,22.57
2018-01-29T02:24:11.398Z,19.80
2018-01-29T02:26:38.805Z,23.50
2018-01-29T02:29:06.207Z,22.47
2018-01-29T02:31:33.632Z,22.77
2018-01-29T02:34:01.047Z,25.73
2018-01-29T02:36:28.442Z,23.67
2018-01-29T02:38:55.839Z,23.63
2018-01-29T02:41:23.246Z,25.80
2018-01-29T02:43:50.647Z,27.23
2018-01-29T02:46:18.066Z,25.37
2018-01-29T02:48:45.482Z,24.00
2018-01-29T02:51:13.787Z,27.50
2018-01-29T02:53:41.215Z,26.70
2018-01-29T02:56:08.635Z,27.50
2018-01-29T02:58:36.015Z,28.67
2018-01-29T03:01:03.451Z,27.50
2018-01-29T03:03:30.858Z,25.57
2018-01-29T03:05:58.267Z,27.07
2018-01-29T03:08:25.660Z,27.70
2018-01-29T03:10:53.074Z,24.80
2018-01-29T03:13:20.472Z,23.47
2018-01-29T03:15:47.873Z,26.67
2018-01-29T03:18:15.287Z,26.47
2018-01-29T03:20:42.697Z,25.63
2018-01-29T03:23:10.158Z,26.63
2018-01-29T03:25:37.600Z,25.20
2018-01-29T03:28:05.100Z,24.27
2018-01-29T03:30:32.508Z,27.73
2018-01-29T03:32:59.913Z,25.50
2018-01-29T03:35:27.330Z,23.40
2018-01-29T03:37:54.730Z,23.33
2018-01-29T03:40:22.146Z,21.07
2018-01-29T03:42:49.551Z,18.80
2018-01-29T03:45:16.951Z,17.10
2018-01-29T03:47:44.342Z,21.13
2018-01-29T03:50:11.746Z,21.97
2018-01-29T03:52:39.142Z,21.00
2018-01-29T03:55:06.562Z,20.80
2018-01-29T03:57:33.954Z,17.90
2018-01-29T04:00:01.374Z,17.37
2018-01-29T04:02:28.796Z,17.90
2018-01-29T04:04:56.199Z,17.13
2018-01-29T04:07:23.602Z,16.97
2018-01-29T04:09:51.002Z,16.00
2018-01-29T04:12:18.412Z,15.57
2018-01-29T04:14:45.814Z,15.13
2018-01-29T04:17:13.217Z,13.27
2018-01-29T04:19:40.635Z,14.67
2018-01-29T04:22:08.098Z,13.13
2018-01-29T04:24:35.501Z,13.77
2018-01-29T04:27:03.026Z,14.13
2018-01-29T04:29:30.435Z,16.43
2018-01-29T04:31:57.834Z,16.70
2018-01-29T04:34:25.230Z,16.30
2018-01-29T04:36:52.647Z,16.20
2018-01-29T04:39:20.042Z,14.77
2018-01-29T04:41:47.471Z,15.00
2018-01-29T04:44:14.878Z,16.30
2018-01-29T04:46:42.291Z,16.37
2018-01-29T04:49:09.717Z,13.57
2018-01-29T04:51:37.334Z,14.23
2018-01-29T04:54:04.719Z,13.70
2018-01-29T04:56:32.215Z,12.60
2018-01-29T04:58:59.632Z,11.07
2018-01-29T05:01:27.055Z,11.87
2018-01-29T05:03:54.446Z,12.97
2018-01-29T05:06:21.859Z,11.00
2018-01-29T05:08:49.254Z,11.13
2018-01-29T05:11:17.000Z,10.13
2018-01-29T05:13:44.378Z,10.30
2018-01-29T05:16:11.838Z,9.50
2018-01-29T05:18:39.233Z,8.77
2018-01-29T05:21:06.634Z,8.77
2018-01-29T05:23:34.032Z,8.80
2018-01-29T05:26:01.442Z,8.00
2018-01-29T05:28:28.847Z,7.03
2018-01-29T05:30:56.230Z,6.97
2018-01-29T05:33:23.677Z,6.20
2018-01-29T05:35:51.090Z,6.70
2018-01-29T05:38:18.516Z,7.57
2018-01-29T05:40:45.977Z,6.77
2018-01-29T05:43:13.554Z,6.90
2018-01-29T05:45:40.947Z,6.33
2018-01-29T05:48:08.354Z,7.00
2018-01-29T05:50:35.758Z,6.30
2018-01-29T05:53:03.168Z,6.77
2018-01-29T05:55:30.542Z,6.70
2018-01-29T05:57:57.947Z,6.90
2018-01-29T06:00:25.442Z,5.93
2018-01-29T06:02:52.834Z,5.60
2018-01-29T06:05:20.247Z,5.60
2018-01-29T06:07:47.722Z,5.10
2018-01-29T06:10:15.113Z,5.80
2018-01-29T06:12:42.515Z,6.53
2018-01-29T06:15:09.927Z,5.40
2018-01-29T06:17:37.351Z,5.83
2018-01-29T06:20:04.739Z,5.40
2018-01-29T06:22:32.155Z,5.70
2018-01-29T06:24:59.567Z,5.70
2018-01-29T06:27:26.974Z,6.27
2018-01-29T06:29:54.371Z,5.70
2018-01-29T06:32:22.487Z,6.20
2018-01-29T06:34:49.877Z,6.00
2018-01-29T06:37:17.268Z,5.60
2018-01-29T06:39:44.754Z,6.73
2018-01-29T06:42:12.157Z,5.40
2018-01-29T06:44:39.541Z,6.00
2018-01-29T06:47:06.933Z,5.27
2018-01-29T06:49:34.328Z,6.30
2018-01-29T06:52:01.723Z,5.60
2018-01-29T06:54:29.106Z,5.30
2018-01-29T06:56:56.542Z,5.53
2018-01-29T06:59:23.945Z,5.57
2018-01-29T07:01:51.353Z,7.20
2018-01-29T07:04:18.738Z,6.10
2018-01-29T07:06:46.138Z,6.70
2018-01-29T07:09:13.547Z,5.90
2018-01-29T07:11:40.943Z,6.63
2018-01-29T07:14:08.350Z,6.40
2018-01-29T07:16:35.770Z,6.00
2018-01-29T07:19:03.366Z,7.40
2018-01-29T07:21:30.791Z,6.30
2018-01-29T07:23:58.193Z,5.77
2018-01-29T07:26:25.606Z,6.80
2018-01-29T07:28:52.999Z,7.90
2018-01-29T07:31:20.406Z,6.30
2018-01-29T07:33:47.805Z,5.90
2018-01-29T07:36:15.211Z,6.10
2018-01-29T07:38:42.610Z,5.40
2018-01-29T07:41:10.030Z,6.20
2018-01-29T07:43:37.435Z,5.83
2018-01-29T07:46:04.853Z,5.03
2018-01-29T07:48:32.247Z,5.50
2018-01-29T07:50:59.659Z,5.80
2018-01-29T07:53:27.055Z,6.80
2018-01-29T07:55:54.463Z,4.73
2018-01-29T07:58:21.871Z,4.93
2018-01-29T08:00:49.388Z,5.03
2018-01-29T08:03:16.791Z,6.40
2018-01-29T08:05:44.188Z,5.53
2018-01-29T08:08:11.591Z,4.97
2018-01-29T08:10:39.011Z,5.07
2018-01-29T08:13:06.415Z,5.80
2018-01-29T08:15:33.810Z,4.47
2018-01-29T08:18:01.207Z,5.00
2018-01-29T08:20:28.607Z,4.30
2018-01-29T08:22:56.004Z,4.10
2018-01-29T08:25:23.433Z,4.10
2018-01-29T08:27:50.853Z,4.70
2018-01-29T08:30:18.253Z,3.87
2018-01-29T08:32:45.658Z,3.77
2018-01-29T08:35:13.059Z,5.23
2018-01-29T08:37:40.469Z,4.13
2018-01-29T08:40:07.864Z,3.83
2018-01-29T08:42:35.267Z,4.73
2018-01-29T08:45:02.671Z,3.83
2018-01-29T08:47:30.075Z,4.57
2018-01-29T08:49:57.490Z,3.97
2018-01-29T08:52:24.897Z,3.83
2018-01-29T08:54:52.304Z,3.07
2018-01-29T08:57:19.717Z,3.63
2018-01-29T08:59:47.128Z,3.67
2018-01-29T09:02:14.543Z,3.93
2018-01-29T09:04:41.935Z,2.93
2018-01-29T09:07:09.350Z,3.47
2018-01-29T09:09:36.851Z,3.80
2018-01-29T09:12:04.263Z,3.80
2018-01-29T09:14:31.679Z,4.10
2018-01-29T09:16:59.095Z,3.23
2018-01-29T09:19:26.499Z,3.90
2018-01-29T09:21:53.911Z,3.17
2018-01-29T09:24:21.344Z,4.47
2018-01-29T09:26:48.752Z,3.90
2018-01-29T09:29:16.151Z,4.07
2018-01-29T09:31:43.559Z,3.43
2018-01-29T09:34:10.959Z,3.83
2018-01-29T09:36:38.375Z,3.27
2018-01-29T09:39:05.789Z,2.90
2018-01-29T09:41:33.191Z,3.73
2018-01-29T09:44:00.592Z,3.97
2018-01-29T09:46:28.004Z,4.17
2018-01-29T09:48:55.403Z,3.50
2018-01-29T09:51:22.807Z,3.50
2018-01-29T09:53:50.207Z,3.40
2018-01-29T09:56:17.787Z,2.70
2018-01-29T09:58:45.188Z,3.00
2018-01-29T10:01:12.611Z,3.20
2018-01-29T10:03:40.017Z,3.40
2018-01-29T10:06:07.435Z,2.90
2018-01-29T10:08:34.843Z,3.23
2018-01-29T10:11:02.236Z,3.17
2018-01-29T10:13:29.627Z,3.90
2018-01-29T10:15:57.005Z,3.57
2018-01-29T10:18:24.462Z,3.27
2018-01-29T10:20:51.966Z,3.43
2018-01-29T10:23:19.377Z,3.00
2018-01-29T10:25:46.779Z,3.53
2018-01-29T10:28:14.175Z,3.30
2018-01-29T10:30:41.574Z,2.63
2018-01-29T10:33:08.970Z,2.73
2018-01-29T10:35:36.393Z,3.43
2018-01-29T10:38:03.799Z,2.77
2018-01-29T10:40:31.210Z,2.57
2018-01-29T10:42:58.604Z,2.30
2018-01-29T10:45:25.990Z,2.47
2018-01-29T10:47:53.405Z,2.27
2018-01-29T10:50:20.788Z,2.50
2018-01-29T10:52:48.234Z,2.67
2018-01-29T10:55:15.637Z,2.07
2018-01-29T10:57:43.031Z,2.67
2018-01-29T11:00:10.422Z,3.70
2018-01-29T11:02:37.822Z,2.60
2018-01-29T11:05:05.214Z,3.83
2018-01-29T11:07:32.618Z,2.90
2018-01-29T11:10:00.032Z,2.37
2018-01-29T11:12:27.466Z,2.00
2018-01-29T11:14:54.870Z,2.67
2018-01-29T11:17:22.290Z,2.20
2018-01-29T11:19:49.678Z,2.93
2018-01-29T11:22:17.170Z,1.70
2018-01-29T11:24:44.563Z,2.00
2018-01-29T11:27:11.962Z,3.00
2018-01-29T11:29:39.394Z,2.23
2018-01-29T11:32:06.794Z,2.27
2018-01-29T11:34:34.208Z,2.77
2018-01-29T11:37:01.608Z,2.50
2018-01-29T11:39:29.330Z,1.90
2018-01-29T11:41:56.732Z,2.63
2018-01-29T11:44:24.138Z,2.60
2018-01-29T11:46:51.551Z,2.63
2018-01-29T11:49:18.942Z,2.00
2018-01-29T11:51:46.412Z,2.70
2018-01-29T11:54:13.828Z,2.43
2018-01-29T11:56:41.229Z,1.63
2018-01-29T11:59:08.625Z,2.17
2018-01-29T12:01:36.040Z,1.83
2018-01-29T12:04:03.431Z,2.30
2018-01-29T12:06:30.822Z,2.50
2018-01-29T12:08:58.226Z,2.37
2018-01-29T12:11:25.622Z,2.53
2018-01-29T12:13:53.023Z,3.00
2018-01-29T12:16:20.399Z,1.90
2018-01-29T12:18:47.820Z,2.10
2018-01-29T12:21:15.218Z,2.33
2018-01-29T12:23:42.635Z,2.50
2018-01-29T12:26:10.024Z,2.13
2018-01-29T12:28:37.414Z,1.50
2018-01-29T12:31:04.805Z,1.63
2018-01-29T12:33:32.456Z,1.97
2018-01-29T12:35:59.836Z,1.60
2018-01-29T12:38:27.241Z,2.10
2018-01-29T12:40:54.634Z,2.10
2018-01-29T12:43:22.067Z,1.80
2018-01-29T12:45:49.457Z,1.70
2018-01-29T12:48:16.870Z,1.73
2018-01-29T12:50:44.255Z,2.17
2018-01-29T12:53:11.664Z,2.20
2018-01-29T12:55:39.076Z,3.37
2018-01-29T12:58:06.471Z,2.97
2018-01-29T13:00:33.866Z,2.87
2018-01-29T13:03:01.263Z,2.10
2018-01-29T13:05:28.714Z,2.50
2018-01-29T13:07:56.114Z,1.93
2018-01-29T13:10:23.503Z,2.30
2018-01-29T13:12:50.901Z,2.13
2018-01-29T13:15:18.309Z,1.70
2018-01-29T13:17:45.712Z,2.00
2018-01-29T13:20:13.120Z,2.03
2018-01-29T13:22:40.511Z,1.80
2018-01-29T13:25:07.907Z,2.97
2018-01-29T13:27:35.298Z,1.63
2018-01-29T13:30:02.717Z,2.40
2018-01-29T13:32:30.113Z,2.10
2018-01-29T13:34:57.529Z,2.00
2018-01-29T13:37:24.935Z,1.80
2018-01-29T13:39:52.379Z,2.17
2018-01-29T13:42:19.763Z,2.10
2018-01-29T13:44:47.170Z,1.90
2018-01-29T13:47:14.593Z,2.57
2018-01-29T13:49:42.001Z,2.40
2018-01-29T13:52:09.407Z,2.07
2018-01-29T13:54:36.804Z,1.63
2018-01-29T13:57:04.178Z,2.90
2018-01-29T13:59:31.570Z,2.03
2018-01-29T14:01:58.965Z,1.80
2018-01-29T14:04:26.353Z,1.80
2018-01-29T14:06:53.771Z,1.43
2018-01-29T14:09:21.165Z,2.27
2018-01-29T14:11:48.559Z,2.30
2018-01-29T14:14:15.957Z,2.07
2018-01-29T14:16:43.340Z,1.73
2018-01-29T14:19:10.851Z,1.93
2018-01-29T14:21:38.219Z,3.50
2018-01-29T14:24:05.656Z,3.37
2018-01-29T14:26:33.074Z,2.57
2018-01-29T14:29:00.471Z,2.20
2018-01-29T14:31:27.851Z,2.50
2018-01-29T14:33:55.242Z,2.50
2018-01-29T14:36:22.647Z,2.37
2018-01-29T14:38:50.054Z,2.23
2018-01-29T14:41:17.432Z,2.23
2018-01-29T14:43:44.830Z,2.30
2018-01-29T14:46:12.261Z,2.83
2018-01-29T14:48:39.666Z,2.97
2018-01-29T14:51:07.054Z,2.63
2018-01-29T14:53:34.451Z,2.47
2018-01-29T14:56:01.855Z,2.57
2018-01-29T14:58:29.261Z,3.20
2018-01-29T15:00:56.659Z,3.00
2018-01-29T15:03:24.049Z,2.50
2018-01-29T15:05:51.438Z,2.70
2018-01-29T15:08:18.836Z,2.00
2018-01-29T15:10:46.263Z,2.90
2018-01-29T15:13:13.759Z,2.43
2018-01-29T15:15:41.216Z,2.67
2018-01-29T15:18:08.639Z,2.80
2018-01-29T15:20:36.054Z,2.73
2018-01-29T15:23:03.461Z,3.00
2018-01-29T15:25:30.871Z,2.60
2018-01-29T15:27:58.252Z,3.70
2018-01-29T15:30:25.749Z,2.77
2018-01-29T15:32:53.152Z,2.57
2018-01-29T15:35:20.534Z,2.93
2018-01-29T15:37:47.930Z,3.40
2018-01-29T15:40:15.474Z,4.10
2018-01-29T15:42:42.921Z,3.03
2018-01-29T15:45:10.261Z,3.80
2018-01-29T15:47:37.662Z,2.63
2018-01-29T15:50:05.056Z,3.70
2018-01-29T15:52:32.434Z,3.90
2018-01-29T15:54:59.854Z,4.03
2018-01-29T15:57:27.218Z,4.57
2018-01-29T15:59:54.602Z,3.77
2018-01-29T16:02:22.082Z,4.63
2018-01-29T16:04:49.474Z,4.60
2018-01-29T16:07:16.878Z,4.90
2018-01-29T16:09:44.274Z,4.83
2018-01-29T16:12:11.660Z,4.50
2018-01-29T16:14:39.063Z,4.90
2018-01-29T16:17:06.459Z,4.70
2018-01-29T16:19:33.841Z,5.20
2018-01-29T16:22:01.239Z,4.43
2018-01-29T16:24:28.653Z,4.83
2018-01-29T16:26:56.050Z,5.30
2018-01-29T16:29:23.452Z,4.63
2018-01-29T16:31:50.830Z,4.63
2018-01-29T16:34:18.230Z,6.90
2018-01-29T16:36:45.607Z,6.50
2018-01-29T16:39:12.998Z,9.90
2018-01-29T16:41:40.386Z,7.30
2018-01-29T16:44:07.771Z,6.13
2018-01-29T16:46:35.196Z,4.70
2018-01-29T16:49:02.566Z,5.40
2018-01-29T16:51:29.958Z,3.60
2018-01-29T16:53:57.369Z,3.87
2018-01-29T16:56:24.746Z,2.97
2018-01-29T16:58:52.150Z,2.00
2018-01-29T17:01:19.535Z,3.20
2018-01-29T17:03:46.932Z,3.33
2018-01-29T17:06:14.403Z,2.27
2018-01-29T17:08:41.803Z,1.30
2018-01-29T17:11:09.218Z,1.43
2018-01-29T17:13:36.610Z,1.80
2018-01-29T17:16:04.006Z,1.53
2018-01-29T17:18:31.399Z,1.50
2018-01-29T17:20:58.816Z,1.33
2018-01-29T17:23:26.185Z,1.00
2018-01-29T17:25:53.643Z,1.30
2018-01-29T17:28:21.102Z,0.90
2018-01-29T17:30:48.526Z,1.20
2018-01-29T17:33:15.914Z,1.10
2018-01-29T17:35:43.314Z,1.33
2018-01-29T17:38:10.695Z,1.10
2018-01-29T17:40:38.080Z,1.50
2018-01-29T17:43:05.470Z,1.80
2018-01-29T17:45:32.891Z,1.17
2018-01-29T17:48:00.275Z,1.50
2018-01-29T17:50:27.976Z,1.03
2018-01-29T17:52:55.462Z,1.00
2018-01-29T17:55:22.858Z,0.90
2018-01-29T17:57:50.244Z,0.70
2018-01-29T18:00:17.685Z,0.80
2018-01-29T18:02:45.079Z,0.80
2018-01-29T18:05:12.475Z,0.57
2018-01-29T18:07:39.874Z,0.70
2018-01-29T18:10:07.519Z,0.50
2018-01-29T18:12:34.897Z,0.60
2018-01-29T18:15:02.285Z,0.60
2018-01-29T18:17:29.671Z,0.60
2018-01-29T18:19:57.066Z,0.70
2018-01-29T18:22:25.513Z,0.60
2018-01-29T18:24:53.015Z,0.70
2018-01-29T18:27:20.421Z,0.60
2018-01-29T18:29:47.815Z,0.60
2018-01-29T18:32:15.240Z,0.90
2018-01-29T18:34:42.606Z,1.17
2018-01-29T18:37:09.997Z,1.50
2018-01-29T18:39:37.412Z,0.90
2018-01-29T18:42:04.818Z,0.93
2018-01-29T18:44:32.253Z,0.80
2018-01-29T18:46:59.639Z,0.90
2018-01-29T18:49:27.035Z,0.60
2018-01-29T18:51:54.763Z,0.70
2018-01-29T18:54:22.307Z,0.90
2018-01-29T18:56:49.712Z,0.80
2018-01-29T18:59:17.181Z,0.70
2018-01-29T19:01:44.628Z,1.03
2018-01-29T19:04:12.024Z,1.00
2018-01-29T19:06:39.430Z,0.90
2018-01-29T19:09:06.994Z,0.70
2018-01-29T19:11:34.641Z,1.07
2018-01-29T19:14:02.027Z,1.00
2018-01-29T19:16:29.442Z,1.43
2018-01-29T19:18:56.858Z,1.17
2018-01-29T19:21:24.265Z,1.10
2018-01-29T19:23:51.645Z,1.23
2018-01-29T19:26:19.048Z,1.13
2018-01-29T19:28:46.544Z,1.50
2018-01-29T19:31:13.939Z,1.50
2018-01-29T19:33:41.322Z,1.50
2018-01-29T19:36:08.738Z,1.20
2018-01-29T19:38:36.133Z,1.17
2018-01-29T19:41:03.530Z,1.30
2018-01-29T19:43:31.382Z,1.03
2018-01-29T19:45:58.759Z,1.40
2018-01-29T19:48:26.147Z,1.53
2018-01-29T19:50:53.556Z,1.50
2018-01-29T19:53:20.985Z,0.73
2018-01-29T19:55:48.398Z,0.80
2018-01-29T19:58:15.830Z,1.03
2018-01-29T20:00:43.274Z,0.80
2018-01-29T20:03:10.682Z,0.70
2018-01-29T20:05:38.090Z,0.83
2018-01-29T20:08:05.474Z,0.80
2018-01-29T20:10:32.863Z,0.60
2018-01-29T20:13:00.251Z,0.80
2018-01-29T20:15:27.661Z,0.70
2018-01-29T20:17:55.042Z,1.13
2018-01-29T20:20:22.438Z,0.80
2018-01-29T20:22:49.827Z,0.80
2018-01-29T20:25:17.278Z,0.70
2018-01-29T20:27:44.667Z,0.70
2018-01-29T20:30:12.065Z,0.70
2018-01-29T20:32:39.462Z,1.40
2018-01-29T20:35:07.053Z,0.93
2018-01-29T20:37:34.467Z,1.43
2018-01-29T20:40:01.848Z,2.13
2018-01-29T20:42:29.234Z,1.73
2018-01-29T20:44:56.636Z,2.43
2018-01-29T20:47:24.038Z,2.10
2018-01-29T20:49:51.456Z,2.23
2018-01-29T20:52:18.946Z,1.87
2018-01-29T20:54:46.336Z,2.07
2018-01-29T20:57:13.732Z,2.33
2018-01-29T20:59:41.118Z,2.10
2018-01-29T21:02:08.506Z,3.10
2018-01-29T21:04:35.903Z,2.00
2018-01-29T21:07:03.320Z,2.97
2018-01-29T21:09:30.703Z,2.17
2018-01-29T21:11:58.095Z,2.43
2018-01-29T21:14:25.486Z,2.70
2018-01-29T21:16:53.263Z,2.13
2018-01-29T21:19:20.759Z,2.87
2018-01-29T21:21:48.154Z,3.23
2018-01-29T21:24:15.567Z,2.93
2018-01-29T21:26:42.970Z,2.90
2018-01-29T21:29:10.361Z,3.43
2018-01-29T21:31:37.757Z,2.65
2018-01-29T21:34:05.148Z,2.87
2018-01-29T21:36:32.567Z,3.20
2018-01-29T21:38:59.976Z,2.97
2018-01-29T21:41:27.433Z,2.50
2018-01-29T21:43:54.821Z,2.20
2018-01-29T21:46:22.253Z,2.23
2018-01-29T21:48:49.677Z,2.13
2018-01-29T21:51:17.103Z,2.40
2018-01-29T21:53:44.494Z,2.23
2018-01-29T21:56:11.903Z,1.90
2018-01-29T21:58:39.310Z,2.30
2018-01-29T22:01:06.707Z,1.90
2018-01-29T22:03:34.136Z,2.60
2018-01-29T22:06:01.530Z,2.13
2018-01-29T22:08:28.956Z,2.40
2018-01-29T22:10:56.364Z,2.63
2018-01-29T22:13:23.786Z,2.40
2018-01-29T22:15:51.183Z,2.30
2018-01-29T22:18:18.665Z,1.93
2018-01-29T22:20:46.069Z,2.00
2018-01-29T22:23:13.478Z,1.90
2018-01-29T22:25:40.926Z,3.97
2018-01-29T22:28:08.308Z,2.37
2018-01-29T22:30:35.701Z,2.33
2018-01-29T22:33:03.099Z,2.43
2018-01-29T22:35:30.479Z,2.20
2018-01-29T22:37:57.910Z,1.93
2018-01-29T22:40:25.318Z,2.50
2018-01-29T22:42:52.722Z,2.40
2018-01-29T22:45:20.114Z,2.03
2018-01-29T22:47:47.499Z,2.10
2018-01-29T22:50:14.946Z,2.13
2018-01-29T22:52:42.334Z,2.30
2018-01-29T22:55:09.739Z,3.33
2018-01-29T22:57:37.153Z,2.60
2018-01-29T23:00:04.551Z,3.37
2018-01-29T23:02:31.946Z,3.77
2018-01-29T23:04:59.337Z,2.47
2018-01-29T23:07:26.733Z,3.90
2018-01-29T23:09:54.189Z,2.40
2018-01-29T23:12:21.558Z,3.17
2018-01-29T23:14:48.986Z,2.20
2018-01-29T23:17:16.372Z,3.30
2018-01-29T23:19:43.761Z,4.23
2018-01-29T23:22:11.168Z,2.30
2018-01-29T23:24:38.623Z,3.30
2018-01-29T23:27:06.022Z,3.20
2018-01-29T23:29:33.429Z,3.57
2018-01-29T23:32:00.904Z,2.33
2018-01-29T23:34:28.276Z,3.37
2018-01-29T23:36:55.658Z,2.60
2018-01-29T23:39:23.061Z,3.30
2018-01-29T23:41:50.451Z,4.27
2018-01-29T23:44:17.849Z,3.40
2018-01-29T23:46:45.256Z,3.70
2018-01-29T23:49:12.680Z,3.23
2018-01-29T23:51:40.078Z,3.37
2018-01-29T23:54:07.475Z,2.63
2018-01-29T23:56:34.870Z,2.70
2018-01-29T23:59:02.256Z,2.63
